sensor_id;sensor_type;location;lat;lon;timestamp;P1;durP1;ratioP1;P2;durP2;ratioP2
21550;SDS011;10936;49.836;7.078;2022-12-18T07:00:37;3.67;;;2.63;;
21550;SDS011;10936;49.836;7.078;2022-12-18T07:03:03;3.17;;;2.60;;
21550;SDS011;10936;49.836;7.078;2022-12-18T07:05:28;3.77;;;3.00;;
21550;SDS011;10936;49.836;7.078;2022-12-18T07:07:54;4.80;;;2.63;;
21550;SDS011;10936;49.836;7.078;2022-12-18T07:10:20;3.53;;;2.80;;
21550;SDS011;10936;49.836;7.078;2022-12-18T07:12:45;3.60;;;2.80;;
21550;SDS011;10936;49.836;7.078;2022-12-18T07:15:11;4.93;;;2.60;;
21550;SDS011;10936;49.836;7.078;2022-12-18T07:17:37;3.80;;;2.97;;
21550;SDS011;10936;49.836;7.078;2022-12-18T07:20:02;3.33;;;2.80;;
21550;SDS011;10936;49.836;7.078;2022-12-18T07:22:28;3.43;;;2.70;;
21550;SDS011;10936;49.836;7.078;2022-12-18T07:24:54;3.50;;;2.80;;
21550;SDS011;10936;49.836;7.078;2022-12-18T07:27:20;5.27;;;3.37;;
21550;SDS011;10936;49.836;7.078;2022-12-18T07:29:46;4.00;;;2.90;;
21550;SDS011;10936;49.836;7.078;2022-12-18T07:32:12;3.27;;;2.50;;
21550;SDS011;10936;49.836;7.078;2022-12-18T07:34:37;3.40;;;2.53;;
21550;SDS011;10936;49.836;7.078;2022-12-18T07:37:03;5.07;;;2.83;;
21550;SDS011;10936;49.836;7.078;2022-12-18T07:39:29;4.37;;;2.67;;
21550;SDS011;10936;49.836;7.078;2022-12-18T07:41:55;4.57;;;2.60;;
21550;SDS011;10936;49.836;7.078;2022-12-18T07:44:39;3.23;;;2.50;;
21550;SDS011;10936;49.836;7.078;2022-12-18T07:47:04;3.30;;;2.60;;
21550;SDS011;10936;49.836;7.078;2022-12-18T07:49:30;4.57;;;2.87;;
21550;SDS011;10936;49.836;7.078;2022-12-18T07:51:55;4.00;;;2.70;;
21550;SDS011;10936;49.836;7.078;2022-12-18T07:54:22;2.97;;;2.40;;
21550;SDS011;10936;49.836;7.078;2022-12-18T07:56:48;5.40;;;3.20;;
21550;SDS011;10936;49.836;7.078;2022-12-18T07:59:14;3.07;;;2.60;;
21550;SDS011;10936;49.836;7.078;2022-12-18T08:01:39;4.23;;;2.70;;
21550;SDS011;10936;49.836;7.078;2022-12-18T08:04:05;3.33;;;2.73;;
21550;SDS011;10936;49.836;7.078;2022-12-18T08:06:31;3.43;;;3.13;;
21550;SDS011;10936;49.836;7.078;2022-12-18T08:08:56;9.50;;;3.30;;
21550;SDS011;10936;49.836;7.078;2022-12-18T08:11:23;7.50;;;3.10;;
21550;SDS011;10936;49.836;7.078;2022-12-18T08:13:51;4.13;;;2.70;;
21550;SDS011;10936;49.836;7.078;2022-12-18T08:16:18;4.10;;;2.87;;
21550;SDS011;10936;49.836;7.078;2022-12-18T08:18:44;4.00;;;2.70;;
21550;SDS011;10936;49.836;7.078;2022-12-18T08:23:36;4.00;;;2.90;;
21550;SDS011;10936;49.836;7.078;2022-12-18T08:26:02;4.93;;;2.77;;
21550;SDS011;10936;49.836;7.078;2022-12-18T08:28:27;4.03;;;3.00;;
21550;SDS011;10936;49.836;7.078;2022-12-18T08:30:53;5.20;;;3.10;;
21550;SDS011;10936;49.836;7.078;2022-12-18T08:33:19;3.67;;;2.80;;
21550;SDS011;10936;49.836;7.078;2022-12-18T08:35:44;4.30;;;3.23;;
21550;SDS011;10936;49.836;7.078;2022-12-18T08:38:10;3.57;;;2.77;;
21550;SDS011;10936;49.836;7.078;2022-12-18T08:40:35;3.50;;;2.80;;
21550;SDS011;10936;49.836;7.078;2022-12-18T08:43:01;3.23;;;2.70;;
21550;SDS011;10936;49.836;7.078;2022-12-18T08:45:45;4.23;;;2.83;;
21550;SDS011;10936;49.836;7.078;2022-12-18T08:48:11;4.07;;;2.93;;
21550;SDS011;10936;49.836;7.078;2022-12-18T08:50:37;3.87;;;2.80;;
21550;SDS011;10936;49.836;7.078;2022-12-18T08:53:03;3.83;;;3.00;;
21550;SDS011;10936;49.836;7.078;2022-12-18T08:55:28;4.37;;;3.20;;
21550;SDS011;10936;49.836;7.078;2022-12-18T08:57:54;4.33;;;3.00;;
21550;SDS011;10936;49.836;7.078;2022-12-18T09:00:19;3.77;;;2.93;;
21550;SDS011;10936;49.836;7.078;2022-12-18T09:02:45;4.33;;;3.03;;
21550;SDS011;10936;49.836;7.078;2022-12-18T09:05:10;4.40;;;2.93;;
21550;SDS011;10936;49.836;7.078;2022-12-18T09:07:36;4.70;;;2.80;;
21550;SDS011;10936;49.836;7.078;2022-12-18T09:10:02;3.57;;;2.70;;
21550;SDS011;10936;49.836;7.078;2022-12-18T09:12:28;3.60;;;2.80;;
21550;SDS011;10936;49.836;7.078;2022-12-18T09:14:54;3.87;;;2.70;;
21550;SDS011;10936;49.836;7.078;2022-12-18T09:17:21;4.03;;;3.13;;
21550;SDS011;10936;49.836;7.078;2022-12-18T09:19:46;5.20;;;2.87;;
21550;SDS011;10936;49.836;7.078;2022-12-18T09:22:12;4.63;;;2.87;;
21550;SDS011;10936;49.836;7.078;2022-12-18T09:24:37;3.63;;;3.00;;
21550;SDS011;10936;49.836;7.078;2022-12-18T09:27:03;2.97;;;2.67;;
21550;SDS011;10936;49.836;7.078;2022-12-18T09:29:29;4.00;;;2.97;;
21550;SDS011;10936;49.836;7.078;2022-12-18T09:31:54;3.17;;;2.70;;
21550;SDS011;10936;49.836;7.078;2022-12-18T09:34:20;3.83;;;2.80;;
21550;SDS011;10936;49.836;7.078;2022-12-18T09:36:46;4.63;;;3.17;;
21550;SDS011;10936;49.836;7.078;2022-12-18T09:39:13;4.07;;;2.60;;
21550;SDS011;10936;49.836;7.078;2022-12-18T09:44:31;3.77;;;2.97;;
21550;SDS011;10936;49.836;7.078;2022-12-18T09:49:45;5.47;;;2.57;;
21550;SDS011;10936;49.836;7.078;2022-12-18T09:52:15;8.13;;;3.10;;
21550;SDS011;10936;49.836;7.078;2022-12-18T09:54:58;5.03;;;2.90;;
21550;SDS011;10936;49.836;7.078;2022-12-18T09:57:31;6.20;;;3.27;;
21550;SDS011;10936;49.836;7.078;2022-12-18T10:00:04;5.73;;;3.07;;
21550;SDS011;10936;49.836;7.078;2022-12-18T10:02:39;3.60;;;2.70;;
21550;SDS011;10936;49.836;7.078;2022-12-18T10:08:02;4.80;;;2.70;;
21550;SDS011;10936;49.836;7.078;2022-12-18T10:10:46;4.80;;;3.00;;
21550;SDS011;10936;49.836;7.078;2022-12-18T10:18:19;6.07;;;3.30;;
21550;SDS011;10936;49.836;7.078;2022-12-18T10:20:59;5.43;;;3.10;;
21550;SDS011;10936;49.836;7.078;2022-12-18T10:23:36;5.43;;;2.90;;
21550;SDS011;10936;49.836;7.078;2022-12-18T10:26:10;8.37;;;3.63;;
21550;SDS011;10936;49.836;7.078;2022-12-18T10:28:40;4.80;;;3.07;;
21550;SDS011;10936;49.836;7.078;2022-12-18T10:31:22;4.80;;;3.23;;
21550;SDS011;10936;49.836;7.078;2022-12-18T10:33:48;7.90;;;2.70;;
21550;SDS011;10936;49.836;7.078;2022-12-18T10:36:14;10.17;;;3.40;;
21550;SDS011;10936;49.836;7.078;2022-12-18T10:38:40;5.00;;;3.40;;
21550;SDS011;10936;49.836;7.078;2022-12-18T10:46:43;5.37;;;3.30;;
21550;SDS011;10936;49.836;7.078;2022-12-18T10:49:21;5.97;;;3.30;;
21550;SDS011;10936;49.836;7.078;2022-12-18T10:52:03;7.87;;;3.30;;
21550;SDS011;10936;49.836;7.078;2022-12-18T10:55:03;8.97;;;3.37;;
21550;SDS011;10936;49.836;7.078;2022-12-18T10:57:39;7.60;;;3.03;;
21550;SDS011;10936;49.836;7.078;2022-12-18T11:00:28;9.87;;;3.53;;
21550;SDS011;10936;49.836;7.078;2022-12-18T11:02:55;6.20;;;3.47;;
21550;SDS011;10936;49.836;7.078;2022-12-18T11:07:58;8.43;;;3.27;;
21550;SDS011;10936;49.836;7.078;2022-12-18T11:10:32;6.07;;;3.17;;
21550;SDS011;10936;49.836;7.078;2022-12-18T11:13:11;7.80;;;3.30;;
21550;SDS011;10936;49.836;7.078;2022-12-18T11:15:41;4.60;;;3.00;;
21550;SDS011;10936;49.836;7.078;2022-12-18T11:18:22;6.13;;;3.33;;
21550;SDS011;10936;49.836;7.078;2022-12-18T11:20:55;4.93;;;2.90;;
21550;SDS011;10936;49.836;7.078;2022-12-18T11:23:30;5.27;;;3.40;;
21550;SDS011;10936;49.836;7.078;2022-12-18T11:25:57;6.73;;;3.10;;
21550;SDS011;10936;49.836;7.078;2022-12-18T11:28:43;7.20;;;3.33;;
21550;SDS011;10936;49.836;7.078;2022-12-18T11:31:18;5.47;;;3.40;;
21550;SDS011;10936;49.836;7.078;2022-12-18T11:33:46;7.67;;;3.43;;
21550;SDS011;10936;49.836;7.078;2022-12-18T11:36:34;8.80;;;3.57;;
21550;SDS011;10936;49.836;7.078;2022-12-18T11:39:12;7.43;;;3.50;;
21550;SDS011;10936;49.836;7.078;2022-12-18T11:41:48;7.10;;;3.67;;
21550;SDS011;10936;49.836;7.078;2022-12-18T11:44:49;7.77;;;3.87;;
21550;SDS011;10936;49.836;7.078;2022-12-18T11:47:38;8.33;;;3.40;;
21550;SDS011;10936;49.836;7.078;2022-12-18T11:50:12;7.07;;;3.53;;
21550;SDS011;10936;49.836;7.078;2022-12-18T11:52:42;7.27;;;3.27;;
21550;SDS011;10936;49.836;7.078;2022-12-18T11:55:10;9.87;;;3.60;;
21550;SDS011;10936;49.836;7.078;2022-12-18T12:00:21;7.90;;;3.70;;
21550;SDS011;10936;49.836;7.078;2022-12-18T12:03:02;5.63;;;3.07;;
21550;SDS011;10936;49.836;7.078;2022-12-18T12:11:06;8.60;;;3.70;;
21550;SDS011;10936;49.836;7.078;2022-12-18T12:14:03;7.30;;;3.50;;
21550;SDS011;10936;49.836;7.078;2022-12-18T12:19:48;6.83;;;3.33;;
21550;SDS011;10936;49.836;7.078;2022-12-18T12:30:55;6.23;;;3.37;;
21550;SDS011;10936;49.836;7.078;2022-12-18T12:33:49;5.30;;;3.40;;
21550;SDS011;10936;49.836;7.078;2022-12-18T12:39:20;6.97;;;3.17;;
21550;SDS011;10936;49.836;7.078;2022-12-18T12:41:49;5.80;;;3.00;;
21550;SDS011;10936;49.836;7.078;2022-12-18T12:44:55;5.17;;;3.20;;
21550;SDS011;10936;49.836;7.078;2022-12-18T12:47:27;9.07;;;3.70;;
21550;SDS011;10936;49.836;7.078;2022-12-18T12:49:57;7.50;;;3.30;;
21550;SDS011;10936;49.836;7.078;2022-12-18T12:52:39;7.00;;;3.40;;
21550;SDS011;10936;49.836;7.078;2022-12-18T12:55:12;6.73;;;3.23;;
21550;SDS011;10936;49.836;7.078;2022-12-18T12:57:48;6.53;;;3.17;;
21550;SDS011;10936;49.836;7.078;2022-12-18T13:00:31;7.27;;;3.30;;
21550;SDS011;10936;49.836;7.078;2022-12-18T13:03:29;6.67;;;3.30;;
21550;SDS011;10936;49.836;7.078;2022-12-18T13:06:04;8.67;;;3.27;;
21550;SDS011;10936;49.836;7.078;2022-12-18T13:14:39;6.13;;;2.90;;
21550;SDS011;10936;49.836;7.078;2022-12-18T13:22:36;6.47;;;3.20;;
21550;SDS011;10936;49.836;7.078;2022-12-18T13:28:18;5.40;;;3.13;;
21550;SDS011;10936;49.836;7.078;2022-12-18T13:40:56;6.53;;;3.23;;
21550;SDS011;10936;49.836;7.078;2022-12-18T13:43:44;5.17;;;2.97;;
21550;SDS011;10936;49.836;7.078;2022-12-18T13:51:39;4.60;;;2.90;;
21550;SDS011;10936;49.836;7.078;2022-12-18T13:56:59;5.13;;;2.70;;
21550;SDS011;10936;49.836;7.078;2022-12-18T13:59:32;6.50;;;2.80;;
21550;SDS011;10936;49.836;7.078;2022-12-18T14:01:59;4.57;;;2.90;;
21550;SDS011;10936;49.836;7.078;2022-12-18T14:04:34;6.07;;;3.67;;
21550;SDS011;10936;49.836;7.078;2022-12-18T14:07:13;5.43;;;3.30;;
21550;SDS011;10936;49.836;7.078;2022-12-18T14:09:56;5.33;;;3.00;;
21550;SDS011;10936;49.836;7.078;2022-12-18T14:12:25;5.53;;;3.23;;
21550;SDS011;10936;49.836;7.078;2022-12-18T14:18:00;5.37;;;3.30;;
21550;SDS011;10936;49.836;7.078;2022-12-18T14:20:34;4.67;;;2.97;;
21550;SDS011;10936;49.836;7.078;2022-12-18T14:23:00;4.10;;;2.67;;
21550;SDS011;10936;49.836;7.078;2022-12-18T14:25:27;5.00;;;2.80;;
21550;SDS011;10936;49.836;7.078;2022-12-18T14:28:02;5.93;;;3.23;;
21550;SDS011;10936;49.836;7.078;2022-12-18T14:30:48;5.57;;;3.40;;
21550;SDS011;10936;49.836;7.078;2022-12-18T14:33:21;4.43;;;3.10;;
21550;SDS011;10936;49.836;7.078;2022-12-18T14:35:53;4.47;;;2.93;;
21550;SDS011;10936;49.836;7.078;2022-12-18T14:38:23;3.70;;;2.83;;
21550;SDS011;10936;49.836;7.078;2022-12-18T14:40:55;6.07;;;3.00;;
21550;SDS011;10936;49.836;7.078;2022-12-18T14:43:29;5.47;;;3.10;;
21550;SDS011;10936;49.836;7.078;2022-12-18T14:45:58;6.13;;;3.00;;
21550;SDS011;10936;49.836;7.078;2022-12-18T14:48:35;4.87;;;3.23;;
21550;SDS011;10936;49.836;7.078;2022-12-18T14:53:44;4.70;;;2.90;;
21550;SDS011;10936;49.836;7.078;2022-12-18T14:56:14;5.67;;;3.57;;
21550;SDS011;10936;49.836;7.078;2022-12-18T14:58:45;5.33;;;3.77;;
21550;SDS011;10936;49.836;7.078;2022-12-18T15:04:27;7.13;;;4.30;;
21550;SDS011;10936;49.836;7.078;2022-12-18T15:07:03;7.23;;;3.70;;
21550;SDS011;10936;49.836;7.078;2022-12-18T15:09:29;6.63;;;4.13;;
21550;SDS011;10936;49.836;7.078;2022-12-18T15:11:58;4.93;;;4.03;;
21550;SDS011;10936;49.836;7.078;2022-12-18T15:14:37;6.63;;;3.83;;
21550;SDS011;10936;49.836;7.078;2022-12-18T15:17:15;5.70;;;4.37;;
21550;SDS011;10936;49.836;7.078;2022-12-18T15:19:47;4.70;;;4.17;;
21550;SDS011;10936;49.836;7.078;2022-12-18T15:22:19;5.17;;;4.10;;
21550;SDS011;10936;49.836;7.078;2022-12-18T15:24:45;6.33;;;4.57;;
21550;SDS011;10936;49.836;7.078;2022-12-18T15:27:21;5.70;;;4.23;;
21550;SDS011;10936;49.836;7.078;2022-12-18T15:32:39;7.30;;;4.87;;
21550;SDS011;10936;49.836;7.078;2022-12-18T15:37:45;8.63;;;5.47;;
21550;SDS011;10936;49.836;7.078;2022-12-18T15:40:14;5.23;;;4.73;;
21550;SDS011;10936;49.836;7.078;2022-12-18T15:42:42;5.60;;;4.70;;
21550;SDS011;10936;49.836;7.078;2022-12-18T15:45:26;6.23;;;4.93;;
21550;SDS011;10936;49.836;7.078;2022-12-18T15:47:52;5.87;;;5.00;;
21550;SDS011;10936;49.836;7.078;2022-12-18T15:50:18;6.50;;;4.93;;
21550;SDS011;10936;49.836;7.078;2022-12-18T15:52:44;5.13;;;4.63;;
21550;SDS011;10936;49.836;7.078;2022-12-18T15:55:15;5.67;;;5.07;;
21550;SDS011;10936;49.836;7.078;2022-12-18T15:58:01;5.63;;;5.07;;
21550;SDS011;10936;49.836;7.078;2022-12-18T16:00:28;6.43;;;5.00;;
21550;SDS011;10936;49.836;7.078;2022-12-18T16:02:53;6.37;;;5.00;;
21550;SDS011;10936;49.836;7.078;2022-12-18T16:05:19;6.73;;;5.03;;
21550;SDS011;10936;49.836;7.078;2022-12-18T16:07:46;5.47;;;4.80;;
21550;SDS011;10936;49.836;7.078;2022-12-18T16:10:12;6.20;;;5.37;;
21550;SDS011;10936;49.836;7.078;2022-12-18T16:12:38;6.67;;;4.90;;
21550;SDS011;10936;49.836;7.078;2022-12-18T16:15:05;6.93;;;5.00;;
21550;SDS011;10936;49.836;7.078;2022-12-18T16:17:31;7.33;;;5.47;;
21550;SDS011;10936;49.836;7.078;2022-12-18T16:19:57;5.83;;;4.90;;
21550;SDS011;10936;49.836;7.078;2022-12-18T16:22:27;5.53;;;4.83;;
21550;SDS011;10936;49.836;7.078;2022-12-18T16:24:54;6.33;;;5.30;;
21550;SDS011;10936;49.836;7.078;2022-12-18T16:27:21;6.13;;;4.97;;
21550;SDS011;10936;49.836;7.078;2022-12-18T16:29:48;7.03;;;5.40;;
21550;SDS011;10936;49.836;7.078;2022-12-18T16:32:14;6.37;;;5.13;;
21550;SDS011;10936;49.836;7.078;2022-12-18T16:34:44;6.53;;;5.20;;
21550;SDS011;10936;49.836;7.078;2022-12-18T16:37:11;5.93;;;5.33;;
21550;SDS011;10936;49.836;7.078;2022-12-18T16:39:38;5.63;;;5.00;;
21550;SDS011;10936;49.836;7.078;2022-12-18T16:42:06;6.87;;;5.50;;
21550;SDS011;10936;49.836;7.078;2022-12-18T16:44:41;5.37;;;4.57;;
21550;SDS011;10936;49.836;7.078;2022-12-18T16:47:07;7.33;;;5.43;;
21550;SDS011;10936;49.836;7.078;2022-12-18T16:49:33;5.97;;;5.10;;
21550;SDS011;10936;49.836;7.078;2022-12-18T16:52:01;6.00;;;5.30;;
21550;SDS011;10936;49.836;7.078;2022-12-18T16:54:28;9.13;;;5.50;;
21550;SDS011;10936;49.836;7.078;2022-12-18T16:56:58;7.33;;;5.23;;
21550;SDS011;10936;49.836;7.078;2022-12-18T16:59:25;5.83;;;5.20;;
21550;SDS011;10936;49.836;7.078;2022-12-18T17:01:51;7.20;;;5.40;;
21550;SDS011;10936;49.836;7.078;2022-12-18T17:04:17;5.87;;;5.17;;
21550;SDS011;10936;49.836;7.078;2022-12-18T17:06:44;5.90;;;4.77;;
21550;SDS011;10936;49.836;7.078;2022-12-18T17:09:15;7.17;;;5.47;;
21550;SDS011;10936;49.836;7.078;2022-12-18T17:11:42;6.10;;;5.17;;
21550;SDS011;10936;49.836;7.078;2022-12-18T17:14:10;5.80;;;5.10;;
21550;SDS011;10936;49.836;7.078;2022-12-18T17:16:38;5.87;;;4.90;;
21550;SDS011;10936;49.836;7.078;2022-12-18T17:19:03;6.07;;;5.03;;
21550;SDS011;10936;49.836;7.078;2022-12-18T17:21:29;6.50;;;5.10;;
21550;SDS011;10936;49.836;7.078;2022-12-18T17:23:55;6.20;;;5.03;;
21550;SDS011;10936;49.836;7.078;2022-12-18T17:26:24;7.43;;;4.97;;
21550;SDS011;10936;49.836;7.078;2022-12-18T17:28:49;6.07;;;5.03;;
21550;SDS011;10936;49.836;7.078;2022-12-18T17:31:19;5.30;;;4.80;;
21550;SDS011;10936;49.836;7.078;2022-12-18T17:33:46;5.57;;;4.57;;
21550;SDS011;10936;49.836;7.078;2022-12-18T17:36:12;5.27;;;4.77;;
21550;SDS011;10936;49.836;7.078;2022-12-18T17:38:42;7.27;;;4.87;;
21550;SDS011;10936;49.836;7.078;2022-12-18T17:41:13;5.63;;;4.77;;
21550;SDS011;10936;49.836;7.078;2022-12-18T17:43:39;6.60;;;4.77;;
21550;SDS011;10936;49.836;7.078;2022-12-18T17:46:10;7.57;;;4.87;;
21550;SDS011;10936;49.836;7.078;2022-12-18T17:48:37;5.33;;;4.77;;
21550;SDS011;10936;49.836;7.078;2022-12-18T17:51:03;6.03;;;4.77;;
21550;SDS011;10936;49.836;7.078;2022-12-18T17:53:30;5.90;;;4.90;;
21550;SDS011;10936;49.836;7.078;2022-12-18T17:55:57;5.00;;;4.50;;
21550;SDS011;10936;49.836;7.078;2022-12-18T17:58:25;5.77;;;4.83;;
21550;SDS011;10936;49.836;7.078;2022-12-18T18:00:51;5.80;;;4.80;;
21550;SDS011;10936;49.836;7.078;2022-12-18T18:03:17;7.30;;;5.23;;
21550;SDS011;10936;49.836;7.078;2022-12-18T18:05:42;5.70;;;4.80;;
21550;SDS011;10936;49.836;7.078;2022-12-18T18:08:08;5.37;;;4.73;;
21550;SDS011;10936;49.836;7.078;2022-12-18T18:10:34;6.73;;;4.90;;
21550;SDS011;10936;49.836;7.078;2022-12-18T18:13:02;6.10;;;4.90;;
21550;SDS011;10936;49.836;7.078;2022-12-18T18:15:56;5.63;;;5.03;;
21550;SDS011;10936;49.836;7.078;2022-12-18T18:18:22;7.23;;;4.67;;
21550;SDS011;10936;49.836;7.078;2022-12-18T18:20:47;6.00;;;4.37;;
21550;SDS011;10936;49.836;7.078;2022-12-18T18:23:13;7.03;;;4.80;;
21550;SDS011;10936;49.836;7.078;2022-12-18T18:25:38;5.67;;;4.53;;
21550;SDS011;10936;49.836;7.078;2022-12-18T18:28:04;7.80;;;5.00;;
21550;SDS011;10936;49.836;7.078;2022-12-18T18:30:29;5.37;;;4.60;;
21550;SDS011;10936;49.836;7.078;2022-12-18T18:32:55;5.43;;;4.40;;
21550;SDS011;10936;49.836;7.078;2022-12-18T18:35:21;8.80;;;4.70;;
21550;SDS011;10936;49.836;7.078;2022-12-18T18:37:47;4.63;;;4.13;;
21550;SDS011;10936;49.836;7.078;2022-12-18T18:40:12;6.30;;;5.30;;
21550;SDS011;10936;49.836;7.078;2022-12-18T18:42:38;6.57;;;4.83;;
21550;SDS011;10936;49.836;7.078;2022-12-18T18:45:04;6.73;;;4.70;;
21550;SDS011;10936;49.836;7.078;2022-12-18T18:47:29;4.80;;;4.30;;
21550;SDS011;10936;49.836;7.078;2022-12-18T18:49:55;5.83;;;5.00;;
21550;SDS011;10936;49.836;7.078;2022-12-18T18:52:21;6.10;;;4.80;;
21550;SDS011;10936;49.836;7.078;2022-12-18T18:54:47;5.63;;;4.70;;
21550;SDS011;10936;49.836;7.078;2022-12-18T18:57:13;5.03;;;4.50;;
21550;SDS011;10936;49.836;7.078;2022-12-18T18:59:39;5.27;;;4.70;;
21550;SDS011;10936;49.836;7.078;2022-12-18T19:02:05;5.10;;;4.43;;
21550;SDS011;10936;49.836;7.078;2022-12-18T19:04:33;5.87;;;5.20;;
21550;SDS011;10936;49.836;7.078;2022-12-18T19:06:59;5.60;;;5.10;;
21550;SDS011;10936;49.836;7.078;2022-12-18T19:09:24;7.07;;;5.30;;
21550;SDS011;10936;49.836;7.078;2022-12-18T19:11:50;5.90;;;5.30;;
21550;SDS011;10936;49.836;7.078;2022-12-18T19:14:34;6.50;;;5.60;;
21550;SDS011;10936;49.836;7.078;2022-12-18T19:17:00;6.13;;;5.53;;
21550;SDS011;10936;49.836;7.078;2022-12-18T19:19:25;6.40;;;5.80;;
21550;SDS011;10936;49.836;7.078;2022-12-18T19:21:51;6.27;;;5.67;;
21550;SDS011;10936;49.836;7.078;2022-12-18T19:24:16;7.67;;;6.00;;
21550;SDS011;10936;49.836;7.078;2022-12-18T19:26:42;7.50;;;6.70;;
21550;SDS011;10936;49.836;7.078;2022-12-18T19:29:08;7.50;;;6.80;;
21550;SDS011;10936;49.836;7.078;2022-12-18T19:31:35;8.27;;;7.47;;
21550;SDS011;10936;49.836;7.078;2022-12-18T19:34:01;8.70;;;7.90;;
21550;SDS011;10936;49.836;7.078;2022-12-18T19:36:29;8.23;;;7.53;;
21550;SDS011;10936;49.836;7.078;2022-12-18T19:38:57;9.60;;;8.73;;
21550;SDS011;10936;49.836;7.078;2022-12-18T19:41:24;10.03;;;9.03;;
21550;SDS011;10936;49.836;7.078;2022-12-18T19:43:50;9.80;;;8.90;;
21550;SDS011;10936;49.836;7.078;2022-12-18T19:46:17;10.73;;;9.83;;
21550;SDS011;10936;49.836;7.078;2022-12-18T19:48:45;11.90;;;10.80;;
21550;SDS011;10936;49.836;7.078;2022-12-18T19:51:15;11.73;;;10.63;;
21550;SDS011;10936;49.836;7.078;2022-12-18T19:53:46;12.70;;;11.60;;
21550;SDS011;10936;49.836;7.078;2022-12-18T19:56:13;13.13;;;11.93;;
21550;SDS011;10936;49.836;7.078;2022-12-18T19:58:41;14.70;;;13.40;;
21550;SDS011;10936;49.836;7.078;2022-12-18T20:01:10;14.70;;;13.40;;
21550;SDS011;10936;49.836;7.078;2022-12-18T20:03:37;15.43;;;14.03;;
21550;SDS011;10936;49.836;7.078;2022-12-18T20:06:24;16.70;;;15.07;;
21550;SDS011;10936;49.836;7.078;2022-12-18T20:08:53;17.37;;;15.77;;
21550;SDS011;10936;49.836;7.078;2022-12-18T20:11:21;19.33;;;17.73;;
21550;SDS011;10936;49.836;7.078;2022-12-18T20:13:46;20.33;;;18.43;;
21550;SDS011;10936;49.836;7.078;2022-12-18T20:16:12;21.03;;;19.13;;
21550;SDS011;10936;49.836;7.078;2022-12-18T20:18:37;22.33;;;20.33;;
21550;SDS011;10936;49.836;7.078;2022-12-18T20:21:03;24.07;;;22.07;;
21550;SDS011;10936;49.836;7.078;2022-12-18T20:23:29;25.03;;;22.90;;
21550;SDS011;10936;49.836;7.078;2022-12-18T20:25:55;25.83;;;23.50;;
21550;SDS011;10936;49.836;7.078;2022-12-18T20:28:21;26.87;;;24.47;;
21550;SDS011;10936;49.836;7.078;2022-12-18T20:30:47;28.97;;;26.47;;
21550;SDS011;10936;49.836;7.078;2022-12-18T20:33:13;29.43;;;26.90;;
21550;SDS011;10936;49.836;7.078;2022-12-18T20:35:39;31.30;;;28.70;;
21550;SDS011;10936;49.836;7.078;2022-12-18T20:38:04;32.87;;;29.87;;
21550;SDS011;10936;49.836;7.078;2022-12-18T20:40:31;32.70;;;29.90;;
21550;SDS011;10936;49.836;7.078;2022-12-18T20:42:56;35.43;;;32.30;;
21550;SDS011;10936;49.836;7.078;2022-12-18T20:45:22;36.83;;;33.63;;
21550;SDS011;10936;49.836;7.078;2022-12-18T20:47:48;38.03;;;34.53;;
21550;SDS011;10936;49.836;7.078;2022-12-18T20:50:13;39.57;;;36.23;;
21550;SDS011;10936;49.836;7.078;2022-12-18T20:52:39;41.87;;;38.17;;
21550;SDS011;10936;49.836;7.078;2022-12-18T20:55:05;44.27;;;40.43;;
21550;SDS011;10936;49.836;7.078;2022-12-18T20:57:31;44.83;;;41.00;;
21550;SDS011;10936;49.836;7.078;2022-12-18T20:59:57;47.80;;;43.70;;
21550;SDS011;10936;49.836;7.078;2022-12-18T21:02:22;49.43;;;45.03;;
21550;SDS011;10936;49.836;7.078;2022-12-18T21:04:48;48.87;;;44.53;;
21550;SDS011;10936;49.836;7.078;2022-12-18T21:07:14;48.83;;;44.63;;
21550;SDS011;10936;49.836;7.078;2022-12-18T21:09:39;50.13;;;45.93;;
21550;SDS011;10936;49.836;7.078;2022-12-18T21:12:07;52.87;;;48.07;;
21550;SDS011;10936;49.836;7.078;2022-12-18T21:14:55;53.20;;;48.50;;
21550;SDS011;10936;49.836;7.078;2022-12-18T21:17:23;55.30;;;50.47;;
21550;SDS011;10936;49.836;7.078;2022-12-18T21:19:49;55.60;;;50.80;;
21550;SDS011;10936;49.836;7.078;2022-12-18T21:22:15;56.60;;;51.67;;
21550;SDS011;10936;49.836;7.078;2022-12-18T21:24:40;57.53;;;52.63;;
21550;SDS011;10936;49.836;7.078;2022-12-18T21:27:06;58.67;;;52.93;;
21550;SDS011;10936;49.836;7.078;2022-12-18T21:29:31;57.83;;;52.77;;
21550;SDS011;10936;49.836;7.078;2022-12-18T21:31:58;57.83;;;52.83;;
21550;SDS011;10936;49.836;7.078;2022-12-18T21:34:25;57.23;;;52.20;;
21550;SDS011;10936;49.836;7.078;2022-12-18T21:36:53;58.87;;;53.70;;
21550;SDS011;10936;49.836;7.078;2022-12-18T21:39:20;59.00;;;54.00;;
21550;SDS011;10936;49.836;7.078;2022-12-18T21:41:46;59.30;;;54.00;;
21550;SDS011;10936;49.836;7.078;2022-12-18T21:44:30;59.73;;;54.47;;
21550;SDS011;10936;49.836;7.078;2022-12-18T21:46:56;59.40;;;54.00;;
21550;SDS011;10936;49.836;7.078;2022-12-18T21:49:22;59.17;;;53.63;;
21550;SDS011;10936;49.836;7.078;2022-12-18T21:51:49;58.43;;;53.33;;
21550;SDS011;10936;49.836;7.078;2022-12-18T21:54:17;57.93;;;52.53;;
21550;SDS011;10936;49.836;7.078;2022-12-18T21:56:50;58.30;;;53.00;;
21550;SDS011;10936;49.836;7.078;2022-12-18T21:59:18;57.70;;;52.23;;
21550;SDS011;10936;49.836;7.078;2022-12-18T22:01:49;57.37;;;52.30;;
21550;SDS011;10936;49.836;7.078;2022-12-18T22:04:15;57.20;;;52.13;;
21550;SDS011;10936;49.836;7.078;2022-12-18T22:06:42;57.37;;;51.97;;
21550;SDS011;10936;49.836;7.078;2022-12-18T22:09:09;57.87;;;52.60;;
21550;SDS011;10936;49.836;7.078;2022-12-18T22:11:36;57.97;;;52.83;;
21550;SDS011;10936;49.836;7.078;2022-12-18T22:14:02;57.27;;;52.27;;
21550;SDS011;10936;49.836;7.078;2022-12-18T22:16:28;57.00;;;51.97;;
21550;SDS011;10936;49.836;7.078;2022-12-18T22:18:53;56.30;;;51.30;;
21550;SDS011;10936;49.836;7.078;2022-12-18T22:21:24;55.63;;;50.83;;
21550;SDS011;10936;49.836;7.078;2022-12-18T22:23:57;55.83;;;50.90;;
21550;SDS011;10936;49.836;7.078;2022-12-18T22:26:24;56.03;;;51.07;;
21550;SDS011;10936;49.836;7.078;2022-12-18T22:28:51;55.20;;;50.37;;
